Contact Us:
Email: info@sawbill.com
Phone: (218)663-7150
Fax: (218)663-7980
Mail: 4620 Sawbill Trail
Box 2129
Tofte, MN 55615


Powered by
Movable Type 3.15
 
Sawbill Weather History Archives: September 2003
Current Sawbill Weather History | « August 2003 | October 2003 »


Date

High
Temperature

Low
Temperature

Barometric
Pressure

Relative
Humidity 7AM

9 AM
Temperature

Moisture

Snow

09/30/03 44 29 30.22 77% 30 .35" 3"
09/29/03 48 32 30.05 84% 35 .15" .5"
09/28/03 49 30 30.01 79% 32 0  
09/27/03 50 38 29.97 77% 39 .15"  
09/26/03 55 44 29.51 88% 46 .24"  
09/25/03 54 38 29.59 88% 44 .10"  
09/24/03 51 38 29.94 83% 38 .30"  
09/23/03 63 43 29.54 82% 46 .07"  
09/22/03 53 48 29.71 87% 48 .06"  
09/21/03 60 47 29.77 89% 52 .10"  
09/20/03 64 44 30.14 83% 47 0  
09/19/03 50 43 30.10 88% 44 1.0"  
09/18/03 70 50 29.79 100% 50 1.5"  
09/17/03 76 56 29.92 71% 62 0  
09/16/03 75 41 29.98 88% 56 0  
09/15/03 70 40 30.01 80% 41 0  
09/14/03 65 47 29.99 87% 48 0  
09/13/03 65 47 30.00 82% 47 0  
09/12/03 66 55 29.84 91% 57 .50"  
09/11/03 77 62 29.81 87% 62 0  
09/10/03 73 63 29.99 87% 63 0  
09/09/03 78 56 30.13 92% 63 0  
09/08/03 84 55 30.14 83% 56 0  
09/07/03 76 50 30.13 85% 53 0  
09/06/03 81 50 30.08 87% 52 0  
09/05/03 78 41 30.21 86% 59 0  
09/04/03 70 41 30.11 79% 41 0  
09/03/03 63 47 30.21 87% 48 0  
09/02/03 75 52 29.92 82% 59 .23"  
09/01/03 71 53 30.08 82% 54 0  
 


Home I Trip Planning I Rentals and Outfitting I Reservations I Campgrounds I Sawbill Store I Sawbill News I Contact

© 1997 - 2017, Sawbill Canoe Outfitters, Inc. I Privacy Policy